Time;durP1;ratioP1;P1;durP2;ratioP2;P2;SDS_P1;SDS_P2;PMS_P1;PMS_P2;Temp;Humidity;BMP_temperature;BMP_pressure;BME280_temperature;BME280_humidity;BME280_pressure;Samples;Min_cycle;Max_cycle;Signal;HPM_P1;HPM_P2
2023/04/26 00:02:17;;;;;;;4.40;1.90;;;5.30;99.90;;;;;;5012469;28;20491;-64
2023/04/26 00:04:47;;;;;;;3.53;1.70;;;5.30;99.90;;;;;;5016575;28;20972;-65
2023/04/26 00:07:15;;;;;;;1.90;1.73;;;5.20;99.90;;;;;;5018283;28;20525;-63
2023/04/26 00:09:43;;;;;;;2.30;1.33;;;5.20;99.90;;;;;;5016395;28;20503;-64
2023/04/26 00:12:11;;;;;;;3.80;1.40;;;5.20;99.90;;;;;;5021025;28;20494;-64
2023/04/26 00:14:39;;;;;;;4.07;1.50;;;5.20;99.90;;;;;;5015647;28;20475;-63
2023/04/26 00:17:07;;;;;;;5.80;1.60;;;5.20;99.90;;;;;;5019093;28;20535;-64
2023/04/26 00:19:35;;;;;;;7.07;1.80;;;5.20;99.90;;;;;;5017861;28;20558;-64
2023/04/26 00:22:05;;;;;;;4.13;1.90;;;5.20;99.90;;;;;;5017404;28;20488;-64
2023/04/26 00:24:33;;;;;;;5.00;1.63;;;5.20;99.90;;;;;;5013169;28;20558;-64
2023/04/26 00:27:04;;;;;;;4.80;1.50;;;5.20;99.90;;;;;;5018832;28;20467;-64
2023/04/26 00:29:32;;;;;;;2.23;1.17;;;5.20;99.90;;;;;;5015828;28;20502;-64
2023/04/26 00:32:00;;;;;;;6.50;1.70;;;5.20;99.90;;;;;;5019983;28;20484;-64
2023/04/26 00:34:33;;;;;;;4.17;1.50;;;5.20;99.90;;;;;;5019502;28;20468;-64
2023/04/26 00:37:01;;;;;;;2.80;1.30;;;5.20;99.90;;;;;;5013773;28;20581;-64
2023/04/26 00:39:30;;;;;;;2.60;1.47;;;5.20;99.90;;;;;;5007267;28;20492;-64
2023/04/26 00:41:58;;;;;;;1.97;1.43;;;5.20;99.90;;;;;;5008889;28;20487;-64
2023/04/26 00:44:26;;;;;;;5.23;1.43;;;5.10;99.90;;;;;;5017648;28;20474;-64
2023/04/26 00:46:54;;;;;;;4.40;1.53;;;5.10;99.90;;;;;;5018181;28;20503;-64
2023/04/26 00:49:25;;;;;;;3.63;1.70;;;5.10;99.90;;;;;;5019482;28;21860;-64
2023/04/26 00:51:54;;;;;;;3.80;1.30;;;5.10;99.90;;;;;;5017923;28;20488;-65
2023/04/26 00:54:22;;;;;;;4.83;1.60;;;5.10;99.90;;;;;;5016855;28;20468;-64
2023/04/26 00:56:52;;;;;;;3.20;1.80;;;5.10;99.90;;;;;;5018233;28;20533;-66
2023/04/26 00:59:20;;;;;;;6.80;1.77;;;5.10;99.90;;;;;;5020074;28;20487;-65
2023/04/26 01:01:48;;;;;;;3.70;1.60;;;5.00;99.90;;;;;;5016563;28;20483;-64
2023/04/26 01:04:18;;;;;;;2.60;1.97;;;5.00;99.90;;;;;;5021878;28;20498;-64
2023/04/26 01:06:47;;;;;;;2.67;1.70;;;5.00;99.90;;;;;;5013439;28;20475;-64
2023/04/26 01:09:15;;;;;;;3.93;1.90;;;5.00;99.90;;;;;;5018270;28;20494;-64
2023/04/26 01:11:44;;;;;;;3.07;1.30;;;5.00;99.90;;;;;;5012054;28;20562;-64
2023/04/26 01:14:15;;;;;;;2.00;1.50;;;5.00;99.90;;;;;;5016249;28;20984;-64
2023/04/26 01:16:45;;;;;;;2.93;2.37;;;5.00;99.90;;;;;;5017388;28;20467;-64
2023/04/26 01:19:14;;;;;;;3.40;1.50;;;5.00;99.90;;;;;;5012702;28;20503;-64
2023/04/26 01:21:42;;;;;;;3.93;1.60;;;5.00;99.90;;;;;;5016376;28;20570;-64
2023/04/26 01:24:13;;;;;;;3.30;1.80;;;5.00;99.90;;;;;;5015324;28;20479;-63
2023/04/26 01:26:44;;;;;;;2.53;1.27;;;4.90;99.90;;;;;;5013620;28;20465;-64
2023/04/26 01:29:17;;;;;;;5.57;2.27;;;4.90;99.90;;;;;;5010258;28;20491;-64
2023/04/26 01:31:45;;;;;;;3.47;1.83;;;4.90;99.90;;;;;;5012817;28;20491;-63
2023/04/26 01:34:13;;;;;;;5.83;2.23;;;4.90;99.90;;;;;;5013055;28;20474;-64
2023/04/26 01:36:42;;;;;;;2.27;2.07;;;4.90;99.90;;;;;;5017112;28;20566;-64
2023/04/26 01:39:11;;;;;;;6.73;2.03;;;4.90;99.90;;;;;;5016465;28;20495;-64
2023/04/26 01:41:39;;;;;;;5.00;2.30;;;4.90;99.90;;;;;;5013302;28;20701;-64
2023/04/26 01:44:07;;;;;;;4.27;2.30;;;4.80;99.90;;;;;;5013315;28;20464;-64
2023/04/26 01:46:35;;;;;;;5.33;2.40;;;4.90;99.90;;;;;;5008769;28;20467;-64
2023/04/26 01:49:03;;;;;;;3.60;2.50;;;4.90;99.90;;;;;;5016340;28;20497;-64
2023/04/26 01:51:31;;;;;;;5.70;2.37;;;4.80;99.90;;;;;;5015529;28;20570;-64
2023/04/26 01:53:59;;;;;;;5.03;2.30;;;4.80;99.90;;;;;;5011719;28;20991;-64
2023/04/26 01:56:28;;;;;;;4.53;2.40;;;4.80;99.90;;;;;;5013192;28;20464;-64
2023/04/26 01:58:58;;;;;;;6.10;2.57;;;4.80;99.90;;;;;;5015287;28;20504;-64
2023/04/26 02:01:26;;;;;;;4.57;2.60;;;4.80;99.90;;;;;;5017862;28;20510;-65
2023/04/26 02:03:54;;;;;;;4.53;2.20;;;4.80;99.90;;;;;;5011316;28;20471;-64
2023/04/26 02:06:22;;;;;;;5.33;2.40;;;4.80;99.90;;;;;;5011524;28;21240;-64
2023/04/26 02:08:50;;;;;;;4.53;2.73;;;4.70;99.90;;;;;;5009424;28;20488;-64
2023/04/26 02:11:18;;;;;;;3.20;2.13;;;4.70;99.90;;;;;;5008377;28;21539;-64
2023/04/26 02:13:47;;;;;;;3.40;2.33;;;4.80;99.90;;;;;;5012852;28;21014;-64
2023/04/26 02:16:15;;;;;;;6.40;2.57;;;4.80;99.90;;;;;;5014920;28;20463;-64
2023/04/26 02:18:44;;;;;;;5.27;2.43;;;4.80;99.90;;;;;;5014494;28;20494;-64
2023/04/26 02:21:12;;;;;;;6.20;2.77;;;4.80;99.90;;;;;;5019572;28;21011;-64
2023/04/26 02:23:40;;;;;;;6.20;2.50;;;4.80;99.90;;;;;;5012462;28;20471;-64
2023/04/26 02:26:08;;;;;;;5.30;2.70;;;4.80;99.90;;;;;;5015377;28;20471;-64
2023/04/26 02:28:36;;;;;;;4.73;2.80;;;4.80;99.90;;;;;;5016519;28;20475;-64
2023/04/26 02:31:06;;;;;;;6.70;2.83;;;4.80;99.90;;;;;;5017849;28;20487;-64
2023/04/26 02:33:34;;;;;;;5.13;3.10;;;4.80;99.90;;;;;;5017229;28;20499;-64
2023/04/26 02:36:04;;;;;;;5.90;2.40;;;4.80;99.90;;;;;;5017842;28;20478;-65
2023/04/26 02:38:33;;;;;;;3.87;2.10;;;4.80;99.90;;;;;;5013389;28;20486;-64
2023/04/26 02:41:03;;;;;;;2.90;2.57;;;4.80;99.90;;;;;;5006962;28;20487;-64
2023/04/26 02:43:31;;;;;;;2.70;2.50;;;4.70;99.90;;;;;;5015750;28;20468;-64
2023/04/26 02:46:00;;;;;;;4.83;2.20;;;4.70;99.90;;;;;;5014012;28;20468;-64
2023/04/26 02:48:29;;;;;;;4.00;2.30;;;4.70;99.90;;;;;;5018779;28;20529;-63
2023/04/26 02:50:57;;;;;;;3.33;2.17;;;4.80;99.90;;;;;;5013858;28;20472;-64
2023/04/26 02:53:25;;;;;;;3.30;2.10;;;4.70;99.90;;;;;;5013328;28;20478;-64
2023/04/26 02:55:53;;;;;;;3.73;2.07;;;4.70;99.90;;;;;;5017043;28;20476;-64
2023/04/26 02:58:21;;;;;;;3.23;2.03;;;4.70;99.90;;;;;;5015594;28;20590;-64
2023/04/26 03:00:49;;;;;;;3.23;2.10;;;4.60;99.90;;;;;;5014948;28;20837;-64
2023/04/26 03:03:17;;;;;;;5.67;2.50;;;4.60;99.90;;;;;;5013241;28;20545;-64
2023/04/26 03:05:47;;;;;;;3.30;2.10;;;4.60;99.90;;;;;;5013665;28;20470;-65
2023/04/26 03:08:14;;;;;;;7.63;2.10;;;4.50;99.90;;;;;;5017291;28;20891;-64
2023/04/26 03:10:44;;;;;;;4.67;3.10;;;4.50;99.90;;;;;;5015315;28;20490;-63
2023/04/26 03:13:12;;;;;;;4.57;2.23;;;4.50;99.90;;;;;;5015633;28;20479;-64
2023/04/26 03:15:45;;;;;;;2.63;2.43;;;4.40;99.90;;;;;;5016865;28;20521;-64
2023/04/26 03:18:13;;;;;;;6.83;3.00;;;4.40;99.90;;;;;;5015110;28;20911;-64
2023/04/26 03:20:42;;;;;;;6.33;2.67;;;4.30;99.90;;;;;;5017886;28;20496;-64
2023/04/26 03:23:13;;;;;;;5.07;2.83;;;4.30;99.90;;;;;;5018241;28;20867;-64
2023/04/26 03:25:41;;;;;;;7.53;3.30;;;4.40;99.90;;;;;;5017413;28;20478;-64
2023/04/26 03:28:12;;;;;;;6.83;3.30;;;4.40;99.90;;;;;;5017837;28;21506;-64
2023/04/26 03:30:40;;;;;;;3.60;2.97;;;4.40;99.90;;;;;;5016912;28;21139;-64
2023/04/26 03:33:08;;;;;;;8.87;3.80;;;4.40;99.90;;;;;;5017130;28;20471;-65
2023/04/26 03:35:36;;;;;;;3.60;2.80;;;4.40;99.90;;;;;;5018769;28;20483;-64
2023/04/26 03:38:04;;;;;;;4.10;3.10;;;4.40;99.90;;;;;;5018519;28;21008;-64
2023/04/26 03:40:33;;;;;;;5.17;2.60;;;4.40;99.90;;;;;;5018312;28;20495;-64
2023/04/26 03:43:01;;;;;;;4.97;2.73;;;4.40;99.90;;;;;;5018389;28;20475;-64
2023/04/26 03:45:29;;;;;;;8.80;2.90;;;4.40;99.90;;;;;;5017611;28;20472;-64
2023/04/26 03:47:57;;;;;;;3.20;2.67;;;4.50;99.90;;;;;;5016798;28;20509;-64
2023/04/26 03:50:25;;;;;;;9.10;3.73;;;4.40;99.90;;;;;;5020224;28;20625;-64
2023/04/26 03:52:53;;;;;;;5.53;2.40;;;4.40;99.90;;;;;;5008534;28;20499;-63
2023/04/26 03:55:21;;;;;;;4.90;2.57;;;4.40;99.90;;;;;;5017509;28;20823;-64
2023/04/26 03:57:52;;;;;;;4.00;3.00;;;4.40;99.90;;;;;;5017319;28;20467;-64
2023/04/26 04:00:20;;;;;;;4.70;2.70;;;4.50;99.90;;;;;;5013641;28;20992;-64
2023/04/26 04:02:48;;;;;;;3.97;2.50;;;4.40;99.90;;;;;;5011604;28;20499;-64
2023/04/26 04:05:17;;;;;;;4.33;2.70;;;4.40;99.90;;;;;;5017129;28;20475;-64
2023/04/26 04:07:45;;;;;;;3.73;2.23;;;4.40;99.90;;;;;;5015769;28;20984;-64
2023/04/26 04:10:13;;;;;;;2.80;2.10;;;4.40;99.90;;;;;;5015175;28;20483;-64
2023/04/26 04:12:40;;;;;;;3.53;2.77;;;4.40;99.90;;;;;;5013990;28;20492;-64
2023/04/26 04:15:13;;;;;;;4.77;2.57;;;4.40;99.90;;;;;;5014212;28;20865;-65
2023/04/26 04:17:41;;;;;;;6.53;2.90;;;4.40;99.90;;;;;;5018491;28;20472;-64
2023/04/26 04:20:10;;;;;;;5.07;2.60;;;4.30;99.90;;;;;;5016779;28;21218;-63
2023/04/26 04:22:38;;;;;;;3.57;2.30;;;4.40;99.90;;;;;;5015524;28;20486;-64
2023/04/26 04:25:08;;;;;;;3.97;2.57;;;4.40;99.90;;;;;;5010071;28;20625;-65
2023/04/26 04:27:37;;;;;;;6.70;2.87;;;4.40;99.90;;;;;;5013270;28;20984;-64
2023/04/26 04:30:07;;;;;;;3.33;2.30;;;4.40;99.90;;;;;;5011235;28;21340;-63
2023/04/26 04:32:38;;;;;;;3.73;2.50;;;4.40;99.90;;;;;;5011825;28;20858;-64
2023/04/26 04:35:06;;;;;;;4.20;3.00;;;4.40;99.90;;;;;;5015402;28;20494;-64
2023/04/26 04:37:34;;;;;;;5.60;2.97;;;4.40;99.90;;;;;;5010612;28;21278;-64
2023/04/26 04:40:03;;;;;;;5.30;2.73;;;4.40;99.90;;;;;;5015351;28;20855;-70
2023/04/26 04:42:31;;;;;;;3.10;2.50;;;4.40;99.90;;;;;;5016319;28;20488;-65
2023/04/26 04:44:59;;;;;;;4.10;2.90;;;4.40;99.90;;;;;;5009332;28;20477;-65
2023/04/26 04:47:27;;;;;;;4.13;2.57;;;4.40;99.90;;;;;;5012938;28;20471;-64
2023/04/26 04:49:57;;;;;;;4.70;2.90;;;4.40;99.90;;;;;;5010886;28;20955;-64
2023/04/26 04:52:25;;;;;;;4.90;2.57;;;4.40;99.90;;;;;;5004153;28;20495;-63
2023/04/26 04:54:53;;;;;;;4.83;3.60;;;4.40;99.90;;;;;;5011133;28;20479;-62
2023/04/26 04:57:21;;;;;;;6.30;3.73;;;4.50;99.90;;;;;;5005376;28;20467;-64
2023/04/26 04:59:50;;;;;;;4.13;3.00;;;4.50;99.90;;;;;;5012594;28;21146;-63
2023/04/26 05:02:17;;;;;;;7.27;3.20;;;4.50;99.90;;;;;;5013394;28;20501;-63
2023/04/26 05:04:46;;;;;;;6.40;2.93;;;4.50;99.90;;;;;;5017166;28;20471;-63
2023/04/26 05:07:17;;;;;;;5.70;3.50;;;4.50;99.90;;;;;;5015064;28;20824;-64
2023/04/26 05:09:45;;;;;;;5.83;3.47;;;4.60;99.90;;;;;;5004944;28;20483;-62
2023/04/26 05:12:13;;;;;;;5.77;3.30;;;4.60;99.90;;;;;;5009076;28;20491;-63
2023/04/26 05:14:40;;;;;;;4.23;3.10;;;4.60;99.90;;;;;;5008397;28;20475;-63
2023/04/26 05:17:08;;;;;;;5.90;3.23;;;4.60;99.90;;;;;;5008799;28;21166;-63
2023/04/26 05:19:36;;;;;;;4.83;3.30;;;4.70;99.90;;;;;;5015854;28;20510;-62
2023/04/26 05:22:05;;;;;;;7.13;3.37;;;4.70;99.90;;;;;;5013446;28;20506;-64
2023/04/26 05:24:34;;;;;;;4.10;3.70;;;4.80;99.90;;;;;;5014551;28;20479;-62
2023/04/26 05:27:04;;;;;;;3.47;2.80;;;4.80;99.90;;;;;;5010668;28;20463;-64
2023/04/26 05:29:31;;;;;;;4.37;3.07;;;4.80;99.90;;;;;;5016264;28;20506;-63
2023/04/26 05:31:59;;;;;;;5.07;3.47;;;4.80;99.90;;;;;;5007240;28;20491;-63
2023/04/26 05:34:27;;;;;;;5.43;2.80;;;4.80;99.90;;;;;;5005781;28;20482;-62
2023/04/26 05:36:55;;;;;;;6.73;3.77;;;4.70;99.90;;;;;;5011207;28;20476;-64
2023/04/26 05:39:24;;;;;;;5.13;3.50;;;4.80;99.90;;;;;;5017834;28;20548;-63
2023/04/26 05:41:53;;;;;;;5.87;3.70;;;4.80;99.90;;;;;;5017135;28;20484;-63
2023/04/26 05:44:21;;;;;;;7.70;4.47;;;4.90;99.90;;;;;;5019714;28;20474;-64
2023/04/26 05:46:49;;;;;;;5.70;3.60;;;4.90;99.90;;;;;;5014624;28;21010;-64
2023/04/26 05:49:16;;;;;;;12.33;3.87;;;5.00;99.90;;;;;;5017264;28;20492;-64
2023/04/26 05:51:44;;;;;;;6.10;3.87;;;5.10;99.90;;;;;;5014273;28;20521;-64
2023/04/26 05:54:12;;;;;;;5.93;4.03;;;5.20;99.90;;;;;;5014799;28;20474;-61
2023/04/26 05:56:42;;;;;;;5.50;3.67;;;5.30;99.90;;;;;;5011385;28;21267;-63
2023/04/26 05:59:12;;;;;;;5.47;3.90;;;5.40;99.90;;;;;;5016825;28;20498;-63
2023/04/26 06:01:40;;;;;;;7.60;3.80;;;5.40;99.90;;;;;;5015004;28;20503;-64
2023/04/26 06:04:08;;;;;;;5.23;3.30;;;5.50;99.90;;;;;;4999825;28;21026;-62
2023/04/26 06:06:37;;;;;;;7.70;3.83;;;5.50;99.90;;;;;;5012994;28;20965;-64
2023/04/26 06:09:05;;;;;;;4.77;4.07;;;5.50;99.90;;;;;;5017568;28;20502;-63
2023/04/26 06:11:33;;;;;;;5.00;3.60;;;5.50;99.90;;;;;;5017139;28;20510;-64
2023/04/26 06:14:01;;;;;;;7.40;4.00;;;5.50;99.90;;;;;;5017304;28;20495;-63
2023/04/26 06:16:31;;;;;;;6.83;3.87;;;5.50;99.90;;;;;;5014971;28;20491;-63
2023/04/26 06:19:00;;;;;;;7.90;4.17;;;5.60;99.90;;;;;;5019382;28;20488;-63
2023/04/26 06:21:28;;;;;;;6.80;4.50;;;5.70;99.90;;;;;;5016650;28;20557;-64
2023/04/26 06:23:56;;;;;;;6.20;4.10;;;5.70;99.90;;;;;;5013742;28;20471;-64
2023/04/26 06:26:24;;;;;;;5.93;3.90;;;5.70;99.90;;;;;;5018177;28;20868;-63
2023/04/26 06:28:52;;;;;;;6.67;4.53;;;5.70;99.90;;;;;;5014745;28;20499;-63
2023/04/26 06:31:23;;;;;;;5.40;4.03;;;5.80;99.90;;;;;;5014670;28;20472;-62
2023/04/26 06:33:52;;;;;;;10.40;4.00;;;5.80;99.90;;;;;;5015923;28;20471;-63
2023/04/26 06:36:21;;;;;;;5.63;3.80;;;5.90;99.90;;;;;;5015430;28;20566;-63
2023/04/26 06:38:48;;;;;;;3.70;3.37;;;5.90;99.90;;;;;;5008686;28;21110;-64
2023/04/26 06:41:16;;;;;;;5.10;3.87;;;5.90;99.90;;;;;;5014749;28;20503;-64
2023/04/26 06:43:44;;;;;;;9.10;4.33;;;6.00;99.90;;;;;;5015919;28;20480;-64
2023/04/26 06:46:12;;;;;;;6.93;4.03;;;6.00;99.90;;;;;;5016057;28;20901;-64
2023/04/26 06:48:40;;;;;;;7.80;4.20;;;6.00;99.90;;;;;;5015834;28;20495;-64
2023/04/26 06:51:10;;;;;;;7.13;4.23;;;6.10;99.90;;;;;;5015889;28;20580;-64
2023/04/26 06:53:38;;;;;;;5.97;4.20;;;6.10;99.90;;;;;;5018411;28;20490;-64
2023/04/26 06:56:06;;;;;;;9.90;4.50;;;6.10;99.90;;;;;;5021990;28;20474;-64
2023/04/26 06:58:35;;;;;;;6.70;3.83;;;6.20;99.90;;;;;;5020942;28;20471;-64
2023/04/26 07:01:05;;;;;;;9.23;4.30;;;6.30;99.90;;;;;;5015990;28;20511;-63
2023/04/26 07:03:33;;;;;;;6.60;3.83;;;6.30;99.90;;;;;;5016646;28;20498;-64
2023/04/26 07:06:01;;;;;;;9.93;4.70;;;6.30;99.90;;;;;;5018340;28;20563;-63
2023/04/26 07:08:31;;;;;;;5.83;3.53;;;6.30;99.90;;;;;;5017083;28;20819;-64
2023/04/26 07:10:58;;;;;;;5.33;3.80;;;6.40;99.90;;;;;;5015003;28;20545;-64
2023/04/26 07:13:26;;;;;;;7.73;3.40;;;6.50;99.90;;;;;;5016758;28;20557;-64
2023/04/26 07:15:55;;;;;;;6.57;3.63;;;6.60;99.90;;;;;;5019546;28;20566;-63
2023/04/26 07:18:23;;;;;;;4.90;3.87;;;6.60;99.90;;;;;;5018669;28;20487;-64
2023/04/26 07:20:50;;;;;;;5.07;3.57;;;6.60;99.90;;;;;;5020544;28;21627;-64
2023/04/26 07:23:19;;;;;;;8.83;3.80;;;6.60;99.90;;;;;;5018483;28;20550;-64
2023/04/26 07:25:48;;;;;;;6.80;3.90;;;6.60;99.90;;;;;;5020657;28;20471;-63
2023/04/26 07:28:16;;;;;;;4.97;3.73;;;6.70;99.90;;;;;;5019753;28;20479;-64
2023/04/26 07:30:44;;;;;;;7.13;3.30;;;6.80;99.90;;;;;;5012152;28;20977;-64
2023/04/26 07:33:12;;;;;;;4.63;3.67;;;6.80;99.90;;;;;;5018981;28;20467;-63
2023/04/26 07:35:43;;;;;;;6.43;3.70;;;6.80;99.90;;;;;;5016024;28;20632;-64
2023/04/26 07:38:13;;;;;;;7.77;3.60;;;6.90;99.90;;;;;;5017438;28;20479;-64
2023/04/26 07:40:42;;;;;;;7.57;3.50;;;7.00;99.90;;;;;;5018774;28;20986;-64
2023/04/26 07:43:12;;;;;;;4.93;3.50;;;7.00;99.90;;;;;;5021610;28;20499;-64
2023/04/26 07:45:40;;;;;;;5.50;3.13;;;7.00;99.90;;;;;;5018112;28;20558;-64
2023/04/26 07:48:08;;;;;;;3.90;3.50;;;7.20;99.90;;;;;;5021159;28;20534;-64
2023/04/26 07:50:36;;;;;;;5.90;3.37;;;7.30;99.90;;;;;;5019755;28;20576;-64
2023/04/26 07:53:04;;;;;;;6.57;3.87;;;7.30;99.90;;;;;;5017153;28;20992;-63
2023/04/26 07:55:32;;;;;;;5.67;3.20;;;7.40;99.90;;;;;;5016419;28;20465;-63
2023/04/26 07:58:00;;;;;;;8.70;2.83;;;7.40;99.90;;;;;;5019055;28;20474;-64
2023/04/26 08:00:29;;;;;;;4.60;2.43;;;7.40;99.90;;;;;;5020661;28;20874;-63
2023/04/26 08:02:57;;;;;;;2.70;2.07;;;7.30;99.90;;;;;;5017635;28;20491;-63
2023/04/26 08:05:26;;;;;;;2.37;1.80;;;7.10;99.90;;;;;;5021170;28;20518;-64
2023/04/26 08:07:54;;;;;;;2.47;1.90;;;6.80;99.90;;;;;;5022675;28;20480;-63
2023/04/26 08:10:22;;;;;;;1.80;1.67;;;6.60;99.90;;;;;;5019873;28;20488;-64
2023/04/26 08:12:50;;;;;;;2.47;2.27;;;6.50;99.90;;;;;;5019265;28;20566;-64
2023/04/26 08:15:19;;;;;;;3.50;2.20;;;6.40;99.90;;;;;;5021501;28;20475;-63
2023/04/26 08:17:51;;;;;;;2.17;1.97;;;6.40;99.90;;;;;;5017842;28;20468;-63
2023/04/26 08:20:20;;;;;;;3.47;2.20;;;6.50;99.90;;;;;;5018891;28;20578;-64
2023/04/26 08:22:47;;;;;;;5.20;2.33;;;6.60;99.90;;;;;;5020143;28;20493;-64
2023/04/26 08:25:16;;;;;;;3.80;2.53;;;6.60;99.90;;;;;;5018753;28;20476;-64
2023/04/26 08:27:44;;;;;;;4.20;2.70;;;6.60;99.90;;;;;;5018837;28;20475;-64
2023/04/26 08:30:12;;;;;;;4.90;2.43;;;6.70;99.90;;;;;;5018832;28;20541;-64
2023/04/26 08:32:40;;;;;;;3.83;2.20;;;6.70;99.90;;;;;;5015023;28;21056;-64
2023/04/26 08:35:10;;;;;;;3.27;2.50;;;6.80;99.90;;;;;;5018314;28;20533;-64
2023/04/26 08:37:38;;;;;;;5.47;2.43;;;6.90;99.90;;;;;;5020721;28;21028;-64
2023/04/26 08:40:09;;;;;;;4.07;2.57;;;6.90;99.90;;;;;;5018554;28;20488;-64
2023/04/26 08:42:42;;;;;;;5.10;2.77;;;6.90;99.90;;;;;;5017151;28;20488;-64
2023/04/26 08:45:15;;;;;;;4.87;3.70;;;6.90;99.90;;;;;;5019873;28;20547;-64
2023/04/26 08:47:44;;;;;;;5.07;3.40;;;7.00;99.90;;;;;;5019064;28;20483;-64
2023/04/26 08:50:15;;;;;;;6.07;2.70;;;7.00;99.90;;;;;;5015248;28;20537;-64
2023/04/26 08:52:44;;;;;;;3.43;2.70;;;7.00;99.90;;;;;;5016575;28;20487;-64
2023/04/26 08:55:13;;;;;;;6.63;2.90;;;7.00;99.90;;;;;;5019738;28;20463;-63
2023/04/26 08:57:42;;;;;;;4.10;3.00;;;7.10;99.90;;;;;;5004810;28;20562;-64
2023/04/26 09:00:12;;;;;;;3.87;3.13;;;7.30;99.90;;;;;;5016765;28;20488;-64
2023/04/26 09:02:41;;;;;;;4.80;3.10;;;7.40;99.90;;;;;;5015182;28;20490;-64
2023/04/26 09:05:11;;;;;;;3.13;2.83;;;7.60;99.90;;;;;;5020421;28;20833;-63
2023/04/26 09:07:42;;;;;;;7.67;3.83;;;7.70;99.90;;;;;;5016501;28;20471;-64
2023/04/26 09:10:12;;;;;;;5.60;3.30;;;8.00;99.90;;;;;;5017297;28;20494;-64
2023/04/26 09:12:40;;;;;;;10.33;3.50;;;8.10;99.90;;;;;;5019957;28;20475;-64
2023/04/26 09:15:09;;;;;;;8.20;4.47;;;8.10;99.90;;;;;;5018476;28;20469;-64
2023/04/26 09:17:40;;;;;;;3.80;3.40;;;8.10;99.90;;;;;;5019787;28;21042;-64
2023/04/26 09:20:19;;;;;;;5.30;3.50;;;8.00;99.90;;;;;;5016759;28;20557;-64
2023/04/26 09:22:52;;;;;;;4.83;3.73;;;8.00;99.90;;;;;;5016942;28;20515;-64
2023/04/26 09:25:28;;;;;;;6.37;3.30;;;8.00;99.90;;;;;;5017766;28;21039;-63
2023/04/26 09:27:57;;;;;;;6.47;3.33;;;8.10;99.90;;;;;;5015733;28;20467;-64
2023/04/26 09:30:25;;;;;;;3.70;2.10;;;8.10;99.90;;;;;;5019035;28;20882;-64
2023/04/26 09:32:56;;;;;;;3.20;1.90;;;8.20;99.90;;;;;;5019248;28;20483;-64
2023/04/26 09:35:30;;;;;;;2.63;2.07;;;8.30;99.90;;;;;;5018409;28;20865;-64
2023/04/26 09:38:02;;;;;;;2.13;1.50;;;8.30;99.90;;;;;;5015919;28;20474;-64
2023/04/26 09:40:40;;;;;;;2.37;1.47;;;8.30;99.90;;;;;;5013843;28;20565;-63
2023/04/26 09:43:10;;;;;;;3.10;1.90;;;8.40;99.90;;;;;;5016729;28;20850;-64
2023/04/26 09:45:48;;;;;;;2.97;1.77;;;8.50;99.90;;;;;;5015434;28;20491;-63
2023/04/26 09:48:21;;;;;;;2.00;1.40;;;8.60;99.90;;;;;;5018937;28;20553;-64
2023/04/26 09:50:52;;;;;;;2.40;1.67;;;8.60;99.90;;;;;;5018362;28;20496;-64
2023/04/26 09:53:29;;;;;;;3.87;2.03;;;8.70;99.90;;;;;;5017527;28;20467;-64
2023/04/26 09:56:07;;;;;;;2.87;1.50;;;8.80;99.90;;;;;;5017050;28;21008;-64
2023/04/26 09:58:37;;;;;;;1.80;1.70;;;9.00;99.90;;;;;;5020018;28;21063;-65
2023/04/26 10:01:06;;;;;;;1.67;1.47;;;9.10;99.90;;;;;;5015854;28;20855;-63
2023/04/26 10:03:35;;;;;;;3.77;1.77;;;9.30;99.90;;;;;;5016432;28;20496;-64
2023/04/26 10:06:04;;;;;;;3.07;2.00;;;9.40;99.90;;;;;;5019559;28;20940;-65
2023/04/26 10:08:34;;;;;;;2.70;1.90;;;9.50;99.90;;;;;;5011648;28;20501;-64
2023/04/26 10:11:06;;;;;;;2.57;1.83;;;9.60;99.90;;;;;;5013288;28;20598;-64
2023/04/26 10:13:34;;;;;;;2.80;1.93;;;9.60;99.90;;;;;;5016821;28;20510;-64
2023/04/26 10:16:03;;;;;;;4.13;2.03;;;9.70;99.90;;;;;;5017459;28;20945;-64
2023/04/26 10:18:31;;;;;;;2.80;2.30;;;9.70;99.90;;;;;;5015966;28;20911;-65
2023/04/26 10:21:02;;;;;;;2.23;1.60;;;9.70;99.90;;;;;;5016212;28;20494;-64
2023/04/26 10:23:32;;;;;;;1.70;1.60;;;9.70;99.90;;;;;;5019680;28;20495;-64
2023/04/26 10:26:01;;;;;;;2.70;1.70;;;9.70;99.90;;;;;;5020450;28;20790;-64
2023/04/26 10:28:55;;;;;;;2.63;2.43;;;9.70;99.90;;;;;;5021593;28;20534;-64
2023/04/26 10:32:03;;;;;;;3.43;1.30;;;9.80;99.90;;;;;;5020996;28;20472;-64
2023/04/26 10:34:33;;;;;;;2.37;1.70;;;9.90;99.90;;;;;;5018427;28;20952;-64
2023/04/26 10:37:09;;;;;;;2.70;1.93;;;9.90;99.90;;;;;;5017998;28;20500;-65
2023/04/26 10:39:37;;;;;;;2.53;1.80;;;10.00;99.90;;;;;;5019416;28;20513;-64
2023/04/26 10:42:24;;;;;;;2.83;1.40;;;10.10;99.90;;;;;;5018721;28;20490;-64
2023/04/26 10:44:55;;;;;;;3.40;1.70;;;10.20;99.90;;;;;;5023362;28;20475;-65
2023/04/26 10:47:26;;;;;;;1.50;1.40;;;10.30;99.90;;;;;;5020642;28;20473;-64
2023/04/26 10:50:04;;;;;;;3.33;1.70;;;10.50;99.90;;;;;;5019887;28;20495;-65
2023/04/26 10:52:37;;;;;;;3.53;1.73;;;10.50;99.90;;;;;;5022220;28;20471;-64
2023/04/26 10:55:06;;;;;;;2.97;2.13;;;10.50;99.90;;;;;;5021675;28;20529;-65
2023/04/26 10:57:50;;;;;;;3.97;1.87;;;10.20;99.90;;;;;;5022704;28;20475;-64
2023/04/26 11:00:27;;;;;;;3.53;1.57;;;9.90;99.90;;;;;;5021429;28;20494;-63
2023/04/26 11:03:11;;;;;;;1.33;1.23;;;9.80;99.90;;;;;;5019963;28;20487;-65
2023/04/26 11:05:55;;;;;;;1.83;1.40;;;9.80;99.90;;;;;;5018297;28;20576;-65
2023/04/26 11:08:29;;;;;;;1.80;1.43;;;9.70;99.90;;;;;;5021103;28;21149;-64
2023/04/26 11:10:59;;;;;;;2.43;1.43;;;9.70;99.90;;;;;;5020766;28;20586;-64
2023/04/26 11:13:30;;;;;;;2.43;1.80;;;9.80;99.90;;;;;;5016764;28;20480;-64
2023/04/26 11:16:02;;;;;;;2.80;1.53;;;9.90;99.90;;;;;;5018801;28;20471;-65
2023/04/26 11:18:31;;;;;;;2.83;1.93;;;10.00;99.90;;;;;;5011510;28;21042;-64
2023/04/26 11:20:59;;;;;;;5.13;2.00;;;10.20;99.90;;;;;;5013714;28;20475;-64
2023/04/26 11:23:29;;;;;;;3.10;1.90;;;10.30;99.90;;;;;;5017886;28;20812;-65
2023/04/26 11:25:58;;;;;;;3.73;1.90;;;10.50;99.90;;;;;;5015204;28;20472;-65
2023/04/26 11:28:27;;;;;;;2.80;1.60;;;10.70;99.90;;;;;;5013834;28;20964;-64
2023/04/26 11:30:56;;;;;;;3.40;1.80;;;10.90;99.90;;;;;;5019913;28;20485;-65
2023/04/26 11:33:24;;;;;;;3.37;1.40;;;10.90;99.90;;;;;;5020695;28;20489;-62
2023/04/26 11:35:53;;;;;;;3.80;1.40;;;11.10;99.90;;;;;;5018231;28;20495;-64
2023/04/26 11:38:22;;;;;;;3.57;1.40;;;11.10;99.90;;;;;;5019797;28;20801;-65
2023/04/26 11:40:55;;;;;;;3.63;1.73;;;11.00;99.90;;;;;;5012863;28;20972;-65
2023/04/26 11:43:23;;;;;;;2.80;1.53;;;11.10;99.90;;;;;;5011208;28;20591;-64
2023/04/26 11:45:58;;;;;;;2.20;1.23;;;11.30;99.90;;;;;;5015143;28;20843;-64
2023/04/26 11:48:27;;;;;;;1.30;1.20;;;11.40;99.90;;;;;;5012124;28;20473;-65
2023/04/26 11:50:57;;;;;;;3.60;1.40;;;11.60;99.90;;;;;;5011903;28;20514;-64
2023/04/26 11:53:36;;;;;;;4.17;1.30;;;11.70;99.90;;;;;;5020701;28;20554;-64
2023/04/26 11:56:05;;;;;;;3.47;1.30;;;11.80;99.90;;;;;;5021475;28;20498;-64
2023/04/26 11:58:33;;;;;;;2.40;1.33;;;11.80;99.90;;;;;;5020306;28;20478;-64
2023/04/26 12:01:02;;;;;;;3.97;1.20;;;11.70;99.90;;;;;;5009971;28;20683;-64
2023/04/26 12:03:32;;;;;;;4.27;1.40;;;11.60;99.90;;;;;;5015127;28;20516;-65
2023/04/26 12:06:01;;;;;;;4.00;1.40;;;11.50;99.90;;;;;;5014461;28;20570;-65
2023/04/26 12:08:29;;;;;;;3.47;1.47;;;11.40;99.90;;;;;;5016948;28;20474;-64
2023/04/26 12:11:00;;;;;;;1.37;1.27;;;11.40;99.90;;;;;;5012922;28;20574;-65
2023/04/26 12:13:29;;;;;;;2.10;1.60;;;11.50;99.90;;;;;;5014976;28;20565;-65
2023/04/26 12:15:57;;;;;;;2.60;1.60;;;11.70;99.90;;;;;;5014071;28;20470;-64
2023/04/26 12:18:32;;;;;;;3.10;1.60;;;11.80;99.90;;;;;;5016622;28;20482;-65
2023/04/26 12:21:03;;;;;;;3.23;1.33;;;11.70;99.90;;;;;;5016304;28;20635;-65
2023/04/26 12:23:38;;;;;;;2.03;0.90;;;11.70;99.90;;;;;;5019273;28;20495;-63
2023/04/26 12:26:09;;;;;;;3.00;1.27;;;11.60;99.90;;;;;;5014616;28;20477;-64
2023/04/26 12:28:37;;;;;;;4.33;1.27;;;11.70;99.90;;;;;;5014190;28;20471;-66
2023/04/26 12:31:06;;;;;;;3.30;1.70;;;11.90;99.90;;;;;;5011251;28;21396;-66
2023/04/26 12:33:35;;;;;;;2.53;1.40;;;12.00;99.90;;;;;;5010475;28;21023;-66
2023/04/26 12:36:08;;;;;;;3.57;1.27;;;12.10;99.90;;;;;;5006291;28;20471;-65
2023/04/26 12:38:36;;;;;;;1.70;1.40;;;12.20;99.90;;;;;;5017987;28;20468;-67
2023/04/26 12:41:04;;;;;;;3.37;1.17;;;12.40;99.90;;;;;;5016329;28;20499;-67
2023/04/26 12:43:33;;;;;;;1.70;1.10;;;12.40;99.90;;;;;;5016861;28;20501;-66
2023/04/26 12:46:01;;;;;;;4.10;1.20;;;12.30;99.90;;;;;;5009467;28;20468;-67
2023/04/26 12:48:29;;;;;;;3.27;1.50;;;12.20;99.90;;;;;;5015940;28;20482;-66
2023/04/26 12:50:59;;;;;;;1.80;1.17;;;12.00;99.90;;;;;;5015095;28;21388;-66
2023/04/26 12:53:27;;;;;;;1.50;1.20;;;11.80;99.90;;;;;;5004939;28;20475;-66
2023/04/26 12:55:55;;;;;;;2.27;1.20;;;11.60;99.90;;;;;;5015385;28;20471;-66
2023/04/26 12:58:24;;;;;;;1.63;1.23;;;11.40;99.90;;;;;;5019122;28;20525;-66
2023/04/26 13:00:52;;;;;;;1.90;1.40;;;11.30;99.90;;;;;;5013478;28;20479;-66
2023/04/26 13:03:20;;;;;;;3.03;1.70;;;11.30;99.90;;;;;;5016118;28;20468;-66
2023/04/26 13:05:48;;;;;;;1.80;1.20;;;11.50;99.90;;;;;;5012175;28;21203;-66
2023/04/26 13:08:17;;;;;;;2.90;1.37;;;11.70;99.90;;;;;;5001267;28;20476;-66